Time;durP1;ratioP1;P1;durP2;ratioP2;P2;SDS_P1;SDS_P2;PMS_P1;PMS_P2;Temp;Humidity;BMP_temperature;BMP_pressure;BME280_temperature;BME280_humidity;BME280_pressure;Samples;Min_cycle;Max_cycle;Signal;HPM_P1;HPM_P2
2023/03/27 00:01:14;;;;;;;2.25;1.17;;;9.20;99.90;;;;;;10058441;28;20553;-67
2023/03/27 00:06:08;;;;;;;2.50;1.30;;;9.20;99.90;;;;;;10064797;28;20025;-68
2023/03/27 00:11:00;;;;;;;1.60;1.20;;;9.20;99.90;;;;;;10064588;28;20471;-66
2023/03/27 00:15:53;;;;;;;1.48;1.15;;;9.20;99.90;;;;;;10064564;28;20029;-65
2023/03/27 00:20:44;;;;;;;1.73;1.35;;;9.20;99.90;;;;;;10065059;28;20189;-64
2023/03/27 00:25:35;;;;;;;2.05;1.38;;;9.10;99.90;;;;;;10063886;28;20049;-65
2023/03/27 00:30:28;;;;;;;1.88;1.35;;;9.10;99.90;;;;;;10063267;28;20459;-64
2023/03/27 00:35:19;;;;;;;2.15;1.60;;;9.20;99.90;;;;;;10063906;28;20037;-66
2023/03/27 00:40:18;;;;;;;1.98;1.10;;;9.20;99.90;;;;;;10063214;28;20044;-65
2023/03/27 00:45:16;;;;;;;2.33;1.40;;;9.10;99.90;;;;;;10062127;28;20391;-68
2023/03/27 00:50:13;;;;;;;2.95;1.60;;;9.20;99.90;;;;;;10067917;28;20027;-68
2023/03/27 00:55:08;;;;;;;3.22;1.70;;;9.10;99.90;;;;;;10069890;28;20029;-67
2023/03/27 01:00:08;;;;;;;2.75;1.80;;;9.10;99.90;;;;;;10063072;28;20036;-65
2023/03/27 01:04:58;;;;;;;3.67;1.85;;;9.00;99.90;;;;;;10062994;28;20195;-70
2023/03/27 01:09:49;;;;;;;2.97;1.95;;;9.00;99.90;;;;;;10062834;28;20179;-72
2023/03/27 01:15:16;;;;;;;3.45;2.58;;;9.00;99.90;;;;;;10060780;28;20021;-67
2023/03/27 01:20:34;;;;;;;3.28;1.80;;;9.10;99.90;;;;;;10063094;28;20033;-69
2023/03/27 01:25:42;;;;;;;3.08;1.58;;;9.00;99.90;;;;;;10051975;28;20420;-68
2023/03/27 01:30:36;;;;;;;2.42;1.70;;;9.00;99.90;;;;;;10061893;28;20383;-68
2023/03/27 01:35:47;;;;;;;2.75;2.00;;;9.10;99.90;;;;;;10061563;28;20117;-69
2023/03/27 01:41:10;;;;;;;1.85;1.40;;;9.00;99.90;;;;;;10060705;28;20718;-69
2023/03/27 01:46:22;;;;;;;1.92;1.15;;;9.00;99.90;;;;;;10057077;28;20038;-66
2023/03/27 01:51:26;;;;;;;2.25;1.70;;;9.20;99.90;;;;;;10061833;28;20082;-66
2023/03/27 01:56:32;;;;;;;3.58;2.30;;;9.00;99.90;;;;;;10060673;28;20037;-66
2023/03/27 02:01:30;;;;;;;2.88;1.90;;;8.90;99.90;;;;;;10059389;28;20034;-66
2023/03/27 02:06:32;;;;;;;2.97;1.83;;;8.90;99.90;;;;;;10060257;28;20088;-67
2023/03/27 02:11:28;;;;;;;5.00;2.25;;;8.90;99.90;;;;;;10060033;28;20091;-67
2023/03/27 02:16:27;;;;;;;2.40;1.90;;;8.80;99.90;;;;;;10060206;28;20288;-67
2023/03/27 02:21:18;;;;;;;3.53;1.85;;;8.70;99.90;;;;;;10060684;28;20030;-67
2023/03/27 02:26:11;;;;;;;5.10;2.65;;;8.60;99.90;;;;;;10057355;28;20041;-66
2023/03/27 02:31:42;;;;;;;6.00;2.40;;;8.40;99.90;;;;;;10036662;28;20079;-66
2023/03/27 02:36:45;;;;;;;2.92;1.85;;;8.40;99.90;;;;;;10016129;28;20102;-67
2023/03/27 02:42:02;;;;;;;3.28;1.88;;;8.40;99.90;;;;;;10051552;28;20045;-66
2023/03/27 02:47:13;;;;;;;6.15;2.63;;;8.30;99.90;;;;;;10034396;28;20045;-67
2023/03/27 02:52:12;;;;;;;6.60;2.42;;;8.30;99.90;;;;;;10060535;28;20524;-66
2023/03/27 02:57:09;;;;;;;5.40;2.92;;;8.20;99.90;;;;;;10060549;28;20041;-66
2023/03/27 03:02:08;;;;;;;5.28;3.55;;;8.20;99.90;;;;;;10057840;28;20053;-67
2023/03/27 03:07:03;;;;;;;6.57;3.85;;;8.10;99.90;;;;;;10048472;28;20407;-67
2023/03/27 03:11:53;;;;;;;8.32;3.97;;;8.20;99.90;;;;;;10046678;28;20117;-67
2023/03/27 03:16:44;;;;;;;10.40;4.00;;;8.30;99.90;;;;;;10047583;28;20032;-67
2023/03/27 03:21:35;;;;;;;8.63;4.53;;;8.00;99.90;;;;;;10049709;28;20120;-68
2023/03/27 03:26:26;;;;;;;5.15;3.10;;;8.00;99.90;;;;;;10058891;28;20346;-67
2023/03/27 03:31:17;;;;;;;6.05;3.35;;;8.00;99.90;;;;;;10057999;28;20475;-67
2023/03/27 03:36:08;;;;;;;5.72;3.35;;;8.00;99.90;;;;;;10060447;28;20048;-68
2023/03/27 03:40:59;;;;;;;7.53;4.10;;;8.00;99.90;;;;;;10066141;28;20060;-68
2023/03/27 03:45:50;;;;;;;6.13;3.47;;;7.90;99.90;;;;;;10066282;28;20060;-68
2023/03/27 03:50:42;;;;;;;11.02;4.13;;;7.90;99.90;;;;;;10065967;28;20033;-66
2023/03/27 03:55:32;;;;;;;7.20;2.30;;;7.90;99.90;;;;;;10065666;28;20583;-67
2023/03/27 04:00:24;;;;;;;6.70;2.53;;;7.70;99.90;;;;;;10065610;28;20113;-70
2023/03/27 04:05:15;;;;;;;4.50;2.50;;;7.60;99.90;;;;;;10066477;28;20045;-67
2023/03/27 04:10:07;;;;;;;7.20;3.17;;;7.50;99.90;;;;;;10065749;28;20029;-68
2023/03/27 04:14:58;;;;;;;4.95;2.67;;;7.50;99.90;;;;;;10065492;28;20473;-66
2023/03/27 04:19:49;;;;;;;6.63;2.80;;;7.50;99.90;;;;;;10065906;28;20026;-66
2023/03/27 04:24:43;;;;;;;7.25;2.85;;;7.50;99.90;;;;;;10065346;28;20050;-66
2023/03/27 04:29:34;;;;;;;4.97;2.63;;;7.40;99.90;;;;;;10062517;28;20037;-67
2023/03/27 04:34:24;;;;;;;4.50;2.45;;;7.50;99.90;;;;;;10062586;28;20017;-66
2023/03/27 04:39:16;;;;;;;13.43;3.13;;;7.40;99.90;;;;;;10063569;28;20046;-66
2023/03/27 04:44:07;;;;;;;5.18;2.08;;;7.50;99.90;;;;;;10062654;28;20026;-66
2023/03/27 04:48:58;;;;;;;4.55;2.42;;;7.30;99.90;;;;;;10063439;28;20496;-65
2023/03/27 04:53:49;;;;;;;6.70;3.95;;;7.50;99.90;;;;;;10075939;28;20093;-64
2023/03/27 04:58:42;;;;;;;5.93;2.50;;;7.50;99.90;;;;;;10063094;28;20124;-65
2023/03/27 05:03:33;;;;;;;10.10;2.92;;;7.30;99.90;;;;;;10062707;28;20018;-65
2023/03/27 05:08:24;;;;;;;4.88;1.92;;;7.20;99.90;;;;;;10062888;28;20357;-65
2023/03/27 05:13:14;;;;;;;3.00;2.15;;;7.10;99.90;;;;;;10062627;28;20025;-65
2023/03/27 05:18:06;;;;;;;4.88;2.70;;;7.10;99.90;;;;;;10062551;28;20116;-65
2023/03/27 05:22:56;;;;;;;7.15;2.97;;;7.00;99.90;;;;;;10062024;28;20060;-67
2023/03/27 05:27:48;;;;;;;3.85;1.83;;;7.00;99.90;;;;;;10062080;28;20041;-70
2023/03/27 05:32:38;;;;;;;3.92;2.38;;;7.00;99.90;;;;;;10061159;28;20368;-68
2023/03/27 05:37:29;;;;;;;4.13;1.83;;;7.00;99.90;;;;;;10059921;28;20212;-68
2023/03/27 05:42:20;;;;;;;4.82;1.65;;;7.00;99.90;;;;;;10061363;28;20087;-67
2023/03/27 05:47:11;;;;;;;2.58;1.98;;;7.00;99.90;;;;;;10061373;28;20026;-65
2023/03/27 05:52:02;;;;;;;4.07;1.50;;;7.00;99.90;;;;;;10073737;28;20131;-66
2023/03/27 05:56:53;;;;;;;2.88;1.67;;;7.00;99.90;;;;;;10060727;28;20125;-67
2023/03/27 06:01:44;;;;;;;6.50;1.48;;;6.80;99.90;;;;;;10059619;28;20033;-66
2023/03/27 06:06:34;;;;;;;11.18;1.67;;;6.70;99.90;;;;;;10060358;28;20030;-64
2023/03/27 06:11:25;;;;;;;3.30;1.40;;;6.60;99.90;;;;;;10059928;28;20032;-67
2023/03/27 06:16:19;;;;;;;7.70;1.98;;;6.60;99.90;;;;;;10059478;28;20078;-66
2023/03/27 06:21:10;;;;;;;3.67;1.52;;;6.40;99.90;;;;;;10055925;28;20076;-67
2023/03/27 06:26:01;;;;;;;2.10;1.50;;;6.40;99.90;;;;;;10045364;28;20080;-64
2023/03/27 06:30:51;;;;;;;3.75;0.98;;;6.40;99.90;;;;;;10053200;28;20173;-63
2023/03/27 06:35:43;;;;;;;3.03;1.80;;;6.60;99.90;;;;;;10055356;28;20432;-67
2023/03/27 06:40:35;;;;;;;3.85;1.23;;;6.60;99.90;;;;;;10057331;28;20137;-67
2023/03/27 06:45:31;;;;;;;5.43;1.92;;;6.70;99.90;;;;;;10054737;28;20443;-67
2023/03/27 06:50:24;;;;;;;4.93;1.50;;;6.40;99.90;;;;;;10058909;28;20245;-65
2023/03/27 06:55:16;;;;;;;3.63;1.13;;;6.30;99.90;;;;;;10056859;28;20022;-65
2023/03/27 07:00:15;;;;;;;2.80;0.90;;;6.30;99.90;;;;;;10055666;28;20047;-66
2023/03/27 07:05:07;;;;;;;3.15;1.00;;;6.20;99.90;;;;;;10053816;28;20032;-67
2023/03/27 07:09:57;;;;;;;1.52;1.20;;;6.10;99.90;;;;;;10054616;28;20029;-65
2023/03/27 07:14:48;;;;;;;2.55;0.80;;;6.10;99.90;;;;;;10057608;28;20025;-67
2023/03/27 07:19:39;;;;;;;4.97;1.20;;;6.10;99.90;;;;;;10057347;28;20359;-67
2023/03/27 07:24:29;;;;;;;3.00;0.93;;;6.20;99.90;;;;;;10055771;28;20222;-68
2023/03/27 07:29:21;;;;;;;6.70;1.25;;;6.10;99.80;;;;;;10058626;28;20187;-68
2023/03/27 07:34:11;;;;;;;3.55;0.90;;;6.00;99.60;;;;;;10057779;28;20117;-67
2023/03/27 07:39:02;;;;;;;2.67;1.00;;;6.10;99.60;;;;;;10057245;28;20128;-68
2023/03/27 07:43:53;;;;;;;5.47;1.15;;;6.30;99.40;;;;;;10057565;28;20018;-69
2023/03/27 07:48:44;;;;;;;4.72;1.20;;;6.40;99.30;;;;;;10057227;28;20027;-68
2023/03/27 07:53:34;;;;;;;4.35;1.42;;;6.30;99.20;;;;;;10055154;28;20029;-68
2023/03/27 07:58:25;;;;;;;5.28;1.23;;;6.30;99.00;;;;;;10057207;28;20120;-66
2023/03/27 08:03:17;;;;;;;1.45;0.82;;;6.40;99.00;;;;;;10058201;28;20491;-69
2023/03/27 08:08:08;;;;;;;5.07;1.38;;;6.60;98.80;;;;;;10057991;28;20034;-68
2023/03/27 08:12:59;;;;;;;5.38;2.35;;;6.60;98.60;;;;;;10058027;28;20037;-68
2023/03/27 08:17:53;;;;;;;3.85;1.35;;;6.60;98.50;;;;;;10058202;28;20492;-64
2023/03/27 08:22:44;;;;;;;2.10;0.98;;;6.70;98.50;;;;;;10060485;28;20516;-67
2023/03/27 08:27:35;;;;;;;4.45;1.80;;;7.00;98.70;;;;;;10062594;28;20042;-66
2023/03/27 08:32:26;;;;;;;2.28;1.45;;;7.20;98.20;;;;;;10064708;28;20488;-64
2023/03/27 08:37:17;;;;;;;3.72;1.17;;;7.40;98.10;;;;;;10065266;28;20048;-69
2023/03/27 08:42:15;;;;;;;2.92;1.00;;;7.10;98.10;;;;;;10063764;28;20112;-65
2023/03/27 08:47:13;;;;;;;3.38;1.02;;;7.00;97.90;;;;;;10063985;28;20338;-66
2023/03/27 08:52:15;;;;;;;0.95;0.82;;;6.90;97.70;;;;;;10067106;28;20037;-65
2023/03/27 08:57:27;;;;;;;4.00;1.15;;;6.80;97.70;;;;;;10061670;28;20041;-66
2023/03/27 09:02:20;;;;;;;5.55;1.08;;;6.80;97.50;;;;;;10061334;28;20369;-63
2023/03/27 09:07:54;;;;;;;6.03;1.13;;;6.80;97.60;;;;;;10061594;28;20033;-65
2023/03/27 09:12:58;;;;;;;3.08;0.88;;;6.90;97.30;;;;;;10060887;28;20064;-66
2023/03/27 09:17:55;;;;;;;1.90;1.05;;;7.10;97.10;;;;;;10061347;28;20028;-66
2023/03/27 09:23:15;;;;;;;3.75;1.15;;;7.00;97.00;;;;;;10059529;28;20014;-65
2023/03/27 09:28:20;;;;;;;2.75;1.05;;;7.20;97.00;;;;;;10055309;28;20515;-65
2023/03/27 09:33:11;;;;;;;4.68;0.60;;;7.10;96.70;;;;;;10058839;28;20064;-66
2023/03/27 09:38:11;;;;;;;1.00;0.68;;;7.30;96.60;;;;;;10057937;28;20810;-66
2023/03/27 09:43:08;;;;;;;5.25;1.60;;;7.60;96.30;;;;;;10059007;28;20029;-66
2023/03/27 09:48:06;;;;;;;3.25;1.38;;;7.50;96.10;;;;;;10058570;28;20412;-67
2023/03/27 09:53:11;;;;;;;3.80;1.20;;;7.40;96.10;;;;;;10059191;28;20029;-67
2023/03/27 09:58:20;;;;;;;2.30;1.03;;;7.70;95.80;;;;;;10058323;28;20272;-65
2023/03/27 10:03:19;;;;;;;3.28;0.77;;;8.00;95.30;;;;;;10035118;28;20024;-64
2023/03/27 10:08:38;;;;;;;2.38;1.05;;;8.30;95.50;;;;;;10058938;28;20029;-65
2023/03/27 10:13:28;;;;;;;3.63;1.20;;;8.20;95.20;;;;;;10058578;28;20497;-65
2023/03/27 10:18:23;;;;;;;2.00;0.70;;;8.30;94.90;;;;;;10058757;28;20034;-65
2023/03/27 10:23:24;;;;;;;2.23;1.00;;;8.80;94.50;;;;;;10055566;28;20115;-66
2023/03/27 10:28:19;;;;;;;3.80;1.15;;;9.30;94.50;;;;;;10053191;28;20182;-65
2023/03/27 10:33:10;;;;;;;3.78;1.48;;;9.40;94.40;;;;;;10058496;28;20036;-66
2023/03/27 10:38:05;;;;;;;2.38;1.20;;;9.10;94.20;;;;;;10059548;28;20041;-66
2023/03/27 10:43:03;;;;;;;3.05;0.88;;;8.80;93.90;;;;;;10062218;28;20026;-63
2023/03/27 10:47:58;;;;;;;5.53;1.00;;;8.50;93.60;;;;;;10058061;28;20111;-67
2023/03/27 10:53:19;;;;;;;3.20;1.38;;;8.60;93.50;;;;;;10071765;28;20086;-66
2023/03/27 10:58:35;;;;;;;4.65;1.77;;;8.90;93.40;;;;;;10059149;28;20475;-66
2023/03/27 11:03:33;;;;;;;2.33;0.80;;;9.00;93.30;;;;;;10058174;28;20057;-61
2023/03/27 11:08:54;;;;;;;2.13;0.90;;;8.90;93.20;;;;;;10055812;28;20026;-61
2023/03/27 11:13:46;;;;;;;2.90;1.42;;;9.10;93.00;;;;;;10045520;28;20459;-62
2023/03/27 11:18:56;;;;;;;2.83;1.55;;;9.50;93.10;;;;;;10055816;28;20044;-62
2023/03/27 11:23:55;;;;;;;3.97;1.10;;;9.40;93.10;;;;;;10056194;28;20029;-66
2023/03/27 11:29:12;;;;;;;3.05;1.10;;;9.70;93.10;;;;;;10054761;28;20056;-64
2023/03/27 11:34:15;;;;;;;1.92;1.08;;;10.00;93.00;;;;;;10052992;28;20235;-64
2023/03/27 11:39:06;;;;;;;7.53;0.98;;;10.30;93.20;;;;;;10057792;28;20048;-64
2023/03/27 11:43:57;;;;;;;4.72;1.02;;;10.20;93.00;;;;;;10056798;28;20484;-63
2023/03/27 11:49:10;;;;;;;2.58;0.90;;;9.80;93.00;;;;;;10057936;28;20090;-65
2023/03/27 11:54:30;;;;;;;2.63;1.20;;;9.70;92.20;;;;;;10064578;28;20040;-63
2023/03/27 11:59:58;;;;;;;3.17;1.20;;;9.90;92.10;;;;;;10054745;28;20515;-63
2023/03/27 12:05:13;;;;;;;2.75;2.05;;;9.80;92.00;;;;;;10061181;28;20099;-64
2023/03/27 12:10:24;;;;;;;3.00;1.00;;;9.90;92.20;;;;;;10062769;28;20033;-65
2023/03/27 12:15:38;;;;;;;1.77;1.00;;;9.70;92.20;;;;;;10058062;28;20025;-66
2023/03/27 12:20:37;;;;;;;3.10;1.05;;;9.50;92.20;;;;;;10046846;28;20037;-65
2023/03/27 12:25:42;;;;;;;1.95;1.38;;;9.80;92.00;;;;;;10047382;28;20046;-65
2023/03/27 12:30:32;;;;;;;3.93;2.20;;;10.20;91.80;;;;;;10049915;28;20034;-67
2023/03/27 12:35:30;;;;;;;2.95;1.20;;;10.50;91.50;;;;;;10050422;28;20033;-68
2023/03/27 12:40:23;;;;;;;4.30;1.05;;;10.80;91.50;;;;;;10061559;28;20048;-69
2023/03/27 12:45:23;;;;;;;1.85;1.15;;;10.40;91.60;;;;;;10064606;28;20036;-68
2023/03/27 12:50:21;;;;;;;1.52;1.08;;;10.20;91.60;;;;;;10064166;28;20025;-70
2023/03/27 12:55:17;;;;;;;4.38;0.85;;;9.90;91.60;;;;;;10066318;28;20021;-67
2023/03/27 13:00:24;;;;;;;2.08;1.20;;;10.00;91.50;;;;;;10061720;28;20041;-67
2023/03/27 13:05:29;;;;;;;2.25;0.65;;;9.90;91.40;;;;;;10055299;28;20041;-67
2023/03/27 13:10:29;;;;;;;3.08;1.13;;;9.70;91.30;;;;;;10040764;28;20116;-67
2023/03/27 13:15:36;;;;;;;5.10;1.30;;;9.20;91.20;;;;;;10053102;28;20087;-65
2023/03/27 13:20:27;;;;;;;1.23;0.70;;;8.60;91.90;;;;;;10054049;28;20095;-69
2023/03/27 13:25:43;;;;;;;2.67;1.08;;;9.80;93.40;;;;;;10060102;28;20044;-64
2023/03/27 13:30:47;;;;;;;4.05;0.85;;;11.10;94.10;;;;;;10057039;28;20519;-65
2023/03/27 13:35:40;;;;;;;1.50;1.35;;;12.80;93.80;;;;;;10060092;28;20037;-66
2023/03/27 13:40:37;;;;;;;1.85;1.38;;;14.60;93.50;;;;;;10060014;28;20196;-66
2023/03/27 13:45:45;;;;;;;4.43;1.17;;;15.70;92.10;;;;;;10059643;28;20606;-64
2023/03/27 13:51:17;;;;;;;3.72;1.10;;;17.40;91.60;;;;;;10060309;28;20037;-66
2023/03/27 13:56:11;;;;;;;1.80;0.77;;;17.80;88.70;;;;;;10056926;28;20088;-64
2023/03/27 14:01:32;;;;;;;2.65;1.02;;;16.60;90.30;;;;;;10060726;28;20040;-65
2023/03/27 14:06:26;;;;;;;2.80;1.02;;;15.30;89.30;;;;;;10041010;28;20033;-64
2023/03/27 14:11:40;;;;;;;4.28;0.80;;;13.10;89.70;;;;;;10060053;28;20567;-66
2023/03/27 14:17:05;;;;;;;4.22;1.45;;;11.80;89.20;;;;;;10056345;28;20443;-67
2023/03/27 14:22:09;;;;;;;2.50;1.20;;;11.10;88.40;;;;;;10044686;28;20026;-64
2023/03/27 14:27:00;;;;;;;1.48;0.65;;;10.30;88.20;;;;;;10054998;28;20150;-64
2023/03/27 14:31:51;;;;;;;1.88;0.98;;;9.70;90.10;;;;;;10057390;28;20026;-61
2023/03/27 14:36:46;;;;;;;6.40;1.25;;;8.90;91.70;;;;;;10046731;28;20045;-64
2023/03/27 14:41:44;;;;;;;2.70;0.90;;;8.80;91.90;;;;;;10033218;28;20029;-69
2023/03/27 14:46:36;;;;;;;2.55;1.15;;;9.00;91.80;;;;;;10049598;28;20029;-70
2023/03/27 14:51:35;;;;;;;2.10;1.02;;;8.70;93.00;;;;;;10053511;28;20534;-67
2023/03/27 14:56:36;;;;;;;2.28;0.68;;;8.40;93.70;;;;;;10048097;28;20029;-67
2023/03/27 15:01:30;;;;;;;2.40;0.80;;;8.60;93.80;;;;;;10054669;28;20056;-65
2023/03/27 15:06:25;;;;;;;2.38;0.90;;;8.80;94.00;;;;;;10049050;28;20026;-68
2023/03/27 15:11:20;;;;;;;2.78;1.00;;;9.30;94.10;;;;;;10042068;28;20025;-64
2023/03/27 15:16:33;;;;;;;2.38;1.27;;;10.00;93.90;;;;;;10046935;28;20029;-64
2023/03/27 15:21:43;;;;;;;3.60;1.02;;;9.30;94.60;;;;;;10045423;28;20132;-64
2023/03/27 15:26:34;;;;;;;2.00;0.77;;;9.00;95.00;;;;;;10053328;28;20164;-61
2023/03/27 15:31:28;;;;;;;1.17;0.65;;;8.90;95.20;;;;;;10050481;28;20029;-61
2023/03/27 15:36:26;;;;;;;2.20;1.52;;;9.10;95.20;;;;;;10052474;28;20018;-66
2023/03/27 15:41:17;;;;;;;1.92;0.90;;;9.10;95.30;;;;;;10050873;28;20061;-67
2023/03/27 15:46:13;;;;;;;0.88;0.70;;;13.40;93.20;;;;;;10042049;28;20014;-67
2023/03/27 15:51:25;;;;;;;1.65;0.88;;;12.70;93.70;;;;;;10049837;28;20037;-65
2023/03/27 15:56:20;;;;;;;1.83;0.80;;;16.50;91.10;;;;;;10058954;28;20025;-66
2023/03/27 16:01:35;;;;;;;1.10;0.88;;;18.50;90.20;;;;;;10058840;28;20029;-67
2023/03/27 16:06:32;;;;;;;2.50;0.80;;;16.20;91.10;;;;;;10039005;28;20309;-68
2023/03/27 16:11:37;;;;;;;2.58;1.00;;;17.00;90.20;;;;;;10048468;28;20117;-67
2023/03/27 16:16:32;;;;;;;2.22;0.60;;;18.20;88.90;;;;;;10056371;28;20021;-67
2023/03/27 16:21:26;;;;;;;3.10;1.33;;;19.30;86.70;;;;;;10049683;28;20093;-65
2023/03/27 16:26:26;;;;;;;2.33;1.38;;;18.70;86.20;;;;;;10055623;28;20045;-65
2023/03/27 16:31:18;;;;;;;1.05;0.95;;;13.90;88.90;;;;;;10060053;28;20377;-63
2023/03/27 16:36:11;;;;;;;2.15;1.10;;;13.30;90.40;;;;;;10061804;28;20032;-61
2023/03/27 16:41:02;;;;;;;3.50;1.15;;;11.80;90.10;;;;;;10060686;28;20045;-65
2023/03/27 16:45:54;;;;;;;1.13;0.80;;;10.50;90.80;;;;;;10060007;28;20414;-64
2023/03/27 16:50:45;;;;;;;3.13;1.73;;;10.00;91.00;;;;;;10060604;28;20022;-63
2023/03/27 16:55:35;;;;;;;1.77;1.08;;;9.40;91.20;;;;;;10064749;28;20400;-65
2023/03/27 17:00:26;;;;;;;5.68;1.80;;;9.20;91.50;;;;;;10061802;28;20041;-62
2023/03/27 17:05:17;;;;;;;2.70;1.15;;;9.10;91.80;;;;;;10061599;28;20022;-63
2023/03/27 17:10:09;;;;;;;4.32;1.60;;;9.00;91.80;;;;;;10061660;28;20037;-64
2023/03/27 17:14:59;;;;;;;2.60;0.98;;;9.00;92.00;;;;;;10060220;28;20069;-62
2023/03/27 17:19:50;;;;;;;0.95;0.73;;;8.90;92.20;;;;;;10060943;28;20039;-71
2023/03/27 17:24:41;;;;;;;1.10;0.82;;;9.00;92.30;;;;;;10060159;28;20234;-68
2023/03/27 17:29:31;;;;;;;1.48;0.70;;;8.90;92.60;;;;;;10060215;28;20519;-65
2023/03/27 17:34:22;;;;;;;1.55;0.80;;;8.80;92.50;;;;;;10059010;28;20033;-65
2023/03/27 17:39:13;;;;;;;3.15;0.90;;;8.70;92.50;;;;;;10059380;28;20053;-66
2023/03/27 17:44:03;;;;;;;1.35;0.90;;;8.40;92.60;;;;;;10054589;28;20489;-67
2023/03/27 17:48:55;;;;;;;1.75;1.00;;;8.40;92.70;;;;;;10049951;28;20511;-68
2023/03/27 17:53:46;;;;;;;1.65;0.88;;;8.40;92.80;;;;;;10051194;28;20018;-66
2023/03/27 17:58:37;;;;;;;3.13;0.90;;;8.30;93.10;;;;;;10056316;28;20131;-64
2023/03/27 18:03:27;;;;;;;2.88;1.00;;;8.10;93.00;;;;;;10055556;28;20524;-67
2023/03/27 18:08:19;;;;;;;2.83;1.23;;;7.80;93.40;;;;;;10058000;28;20063;-64
2023/03/27 18:13:10;;;;;;;2.70;1.00;;;7.70;93.80;;;;;;10058496;28;20565;-64
2023/03/27 18:18:02;;;;;;;2.17;1.20;;;7.50;94.30;;;;;;10058232;28;20381;-66
2023/03/27 18:22:52;;;;;;;2.10;1.08;;;7.60;94.40;;;;;;10054963;28;20520;-69
2023/03/27 18:27:44;;;;;;;2.45;1.00;;;7.70;94.30;;;;;;10055069;28;20060;-70
2023/03/27 18:32:34;;;;;;;1.00;0.77;;;7.50;94.40;;;;;;10054298;28;20530;-70
2023/03/27 18:37:26;;;;;;;1.30;0.80;;;7.50;94.60;;;;;;10047643;28;20041;-68
2023/03/27 18:42:16;;;;;;;2.53;1.23;;;7.50;94.70;;;;;;10052705;28;20059;-67
2023/03/27 18:47:07;;;;;;;4.45;1.10;;;7.50;94.70;;;;;;10048940;28;20041;-69
2023/03/27 18:51:58;;;;;;;2.05;1.05;;;7.40;94.80;;;;;;10053954;28;20029;-69
2023/03/27 18:56:50;;;;;;;3.33;1.25;;;7.30;94.90;;;;;;10056817;28;20036;-71
2023/03/27 19:01:50;;;;;;;2.92;1.75;;;7.40;95.10;;;;;;10055377;28;20504;-67
2023/03/27 19:06:40;;;;;;;2.00;1.30;;;7.40;95.20;;;;;;10055421;28;20080;-69
2023/03/27 19:11:31;;;;;;;3.40;1.27;;;7.30;95.20;;;;;;10052078;28;20025;-66
2023/03/27 19:16:22;;;;;;;3.08;1.52;;;7.20;95.80;;;;;;10056018;28;20029;-67
2023/03/27 19:21:13;;;;;;;2.75;1.27;;;7.10;95.60;;;;;;10053817;28;20040;-68
2023/03/27 19:26:08;;;;;;;2.88;1.52;;;7.20;95.70;;;;;;10057512;28;20046;-68
2023/03/27 19:31:10;;;;;;;1.90;1.23;;;7.20;95.70;;;;;;10051012;28;20127;-68
2023/03/27 19:36:01;;;;;;;2.30;1.17;;;7.30;95.70;;;;;;10056264;28;20017;-72
2023/03/27 19:40:53;;;;;;;2.72;1.17;;;7.40;95.80;;;;;;10052465;28;20030;-68
2023/03/27 19:45:54;;;;;;;1.98;1.27;;;7.30;95.90;;;;;;10055837;28;20087;-69
2023/03/27 19:50:45;;;;;;;2.13;0.90;;;7.20;96.10;;;;;;10055016;28;20248;-68
2023/03/27 19:55:36;;;;;;;3.60;1.30;;;7.20;96.20;;;;;;10055837;28;20021;-67
2023/03/27 20:00:27;;;;;;;3.25;1.20;;;7.30;96.20;;;;;;10055801;28;20096;-70
2023/03/27 20:05:17;;;;;;;2.10;1.48;;;7.30;96.40;;;;;;10051591;28;20496;-71
2023/03/27 20:10:08;;;;;;;1.60;1.17;;;7.10;96.60;;;;;;10055879;28;20230;-69
2023/03/27 20:14:59;;;;;;;31.92;14.35;;;7.10;96.70;;;;;;10053703;28;20022;-66
2023/03/27 20:19:50;;;;;;;3.20;1.73;;;7.00;96.80;;;;;;10054915;28;20045;-67
2023/03/27 20:24:40;;;;;;;3.50;1.55;;;7.00;96.90;;;;;;10053892;28;20109;-63
2023/03/27 20:29:31;;;;;;;2.85;1.35;;;7.00;97.00;;;;;;10047898;28;20183;-63
2023/03/27 20:34:23;;;;;;;3.60;1.15;;;7.20;96.90;;;;;;10058893;28;20022;-66
2023/03/27 20:39:13;;;;;;;1.88;0.95;;;7.20;96.80;;;;;;10064107;28;20041;-66
2023/03/27 20:44:14;;;;;;;1.20;0.93;;;7.40;96.50;;;;;;10055965;28;20033;-66
2023/03/27 20:49:05;;;;;;;1.02;0.80;;;7.40;96.40;;;;;;10064003;28;20037;-66
2023/03/27 20:53:56;;;;;;;1.92;1.17;;;7.30;96.20;;;;;;10060804;28;20029;-65
2023/03/27 20:58:47;;;;;;;2.17;0.77;;;7.40;96.20;;;;;;10058281;28;20083;-66
2023/03/27 21:03:44;;;;;;;5.20;1.35;;;7.30;96.20;;;;;;10049704;28;20076;-66
2023/03/27 21:08:36;;;;;;;1.35;1.00;;;7.40;96.10;;;;;;10044610;28;20076;-64
2023/03/27 21:13:27;;;;;;;3.47;1.02;;;7.30;96.10;;;;;;10052357;28;20100;-66
2023/03/27 21:18:18;;;;;;;0.95;0.80;;;7.20;96.10;;;;;;10070994;28;20133;-69
2023/03/27 21:23:08;;;;;;;3.22;1.33;;;7.20;96.10;;;;;;10062241;28;20033;-69
2023/03/27 21:27:59;;;;;;;1.92;1.27;;;7.10;96.30;;;;;;10060948;28;20048;-67
2023/03/27 21:32:50;;;;;;;2.50;1.55;;;7.10;96.10;;;;;;10067221;28;20105;-66
2023/03/27 21:37:40;;;;;;;3.03;1.48;;;7.00;96.10;;;;;;10056684;28;20041;-68
2023/03/27 21:42:31;;;;;;;4.28;1.02;;;7.00;96.10;;;;;;10049841;28;20154;-69
2023/03/27 21:47:22;;;;;;;1.45;0.95;;;7.00;96.20;;;;;;10046633;28;20440;-69
2023/03/27 21:52:13;;;;;;;2.65;1.20;;;6.90;96.30;;;;;;10055813;28;20104;-68
2023/03/27 21:57:04;;;;;;;3.60;1.25;;;6.90;96.50;;;;;;10049902;28;20025;-68
2023/03/27 22:01:55;;;;;;;2.22;1.45;;;6.80;96.80;;;;;;10059721;28;20087;-66
2023/03/27 22:06:46;;;;;;;2.85;1.23;;;6.70;96.80;;;;;;10063951;28;20397;-66
2023/03/27 22:11:36;;;;;;;2.58;1.40;;;6.70;96.90;;;;;;10065807;28;20068;-67
2023/03/27 22:16:27;;;;;;;1.77;1.23;;;6.80;96.90;;;;;;10072161;28;20033;-66
2023/03/27 22:21:21;;;;;;;2.08;1.48;;;6.80;96.90;;;;;;10074503;28;20044;-68
2023/03/27 22:26:12;;;;;;;3.67;1.55;;;6.70;97.00;;;;;;10065831;28;20046;-68
2023/03/27 22:31:03;;;;;;;2.53;1.73;;;6.60;97.30;;;;;;10063990;28;20082;-67
2023/03/27 22:35:54;;;;;;;2.60;1.17;;;6.50;97.40;;;;;;10061536;28;20452;-68
2023/03/27 22:40:44;;;;;;;2.97;1.23;;;6.50;97.50;;;;;;10060579;28;20038;-68
2023/03/27 22:45:35;;;;;;;3.80;1.52;;;6.50;97.60;;;;;;10060699;28;20022;-70
2023/03/27 22:50:26;;;;;;;3.75;1.88;;;6.50;97.80;;;;;;10061430;28;20033;-68
2023/03/27 22:55:16;;;;;;;1.80;1.40;;;6.40;97.80;;;;;;10059971;28;20032;-68
2023/03/27 23:00:08;;;;;;;2.65;1.50;;;6.40;98.00;;;;;;10059688;28;20220;-69
2023/03/27 23:04:58;;;;;;;2.72;1.52;;;6.40;97.90;;;;;;10059050;28;20088;-67
2023/03/27 23:09:49;;;;;;;4.45;2.45;;;6.40;98.10;;;;;;10060359;28;20033;-67
2023/03/27 23:14:40;;;;;;;4.40;1.95;;;6.40;98.10;;;;;;10067069;28;20480;-67
2023/03/27 23:19:31;;;;;;;3.13;1.60;;;6.40;98.00;;;;;;10058590;28;20041;-67
2023/03/27 23:24:21;;;;;;;3.50;1.33;;;6.30;98.10;;;;;;10058297;28;20494;-66
2023/03/27 23:29:12;;;;;;;4.32;1.60;;;6.30;98.30;;;;;;10058425;28;20041;-68
2023/03/27 23:34:03;;;;;;;1.85;1.40;;;6.20;98.10;;;;;;10054168;28;20454;-67
2023/03/27 23:38:53;;;;;;;2.72;1.38;;;6.20;98.10;;;;;;10058145;28;20431;-68
2023/03/27 23:43:44;;;;;;;5.18;1.95;;;6.20;98.10;;;;;;10058412;28;20361;-66
2023/03/27 23:48:37;;;;;;;1.90;1.40;;;6.10;98.20;;;;;;10057859;28;20036;-67
2023/03/27 23:53:28;;;;;;;3.97;1.23;;;6.20;98.20;;;;;;10061621;28;20037;-66
2023/03/27 23:58:18;;;;;;;2.60;1.17;;;6.10;98.20;;;;;;10067189;28;20033;-67
